Зубр

Карта отелей и гостиниц, располагающихся рядом с аэропортом Зубр :

Зубр Тульская область 53° 59' 47.1084" N, 37° 6' 56.9016" E
Зубр Тульская область 53° 59' 47.1084" N, 37° 6' 56.9016" E
Код аэродрома ИКАО
UUDZ
Код аэродрома RU
УУДЗ
Координаты
N53.99642° E037.11581°
Превышение над уровнем моря
201
Основная полоса
14/32
Курс магнитный
139,6/319,6
Длина основной ВПП
23
Ширина основной ВПП
23
Покрытие основной ВПП
Твёрдое (железобетон)
Освещение ВПП
По запросу
Тип: 
Вертодром
Класс аэродрома: 
Принадлежность: 
АОН
Статус: 
Действующий
Сайт: 
E-mail аэродрома: 
ivorobeva@braer.ru, kabanovi@spinv.ru
Страна: 
Россия
Регион: 
Тульская область
Город: 
Дополнительная информация: 
Групповая (две однотипных ПП для вертолетов с искусственным покрытием). Владелец ПП: ООО "Зубр". АНППП зарегистрирован в МТУ ВТ ЦР Росавиации в 16 фев 2017 №ЦП3-480. Принимает ВС массой до 16 т.

Найти трансфер

С помощью этой формы Вы можете найти трансфер из аэропорта Зубр в город, аэропорт или вокзал:

Карта места

Javascript is required to view this map.

Погода в аэропортах:

Авиационная погода в Тбилиси

Регион: 
Погода METAR: 
UGTB 171530Z 33017KT 9999 -SHRA SCT055CB 18/15 Q1015 R31L/19//60 NOSIG
Время наблюдения
2021-09-17T15:30:00Z
Температура C
18.0
Точка росы
15.0
Направление ветра
330
Скорость ветра (узлы)
17
Метео видимость
6.21
Явления погоды
-SHRA
Условия полета
VFR

Авиационная погода в Брянске

Регион: 
Погода METAR: 
UUBP 171530Z AUTO 06004MPS 9000 -RA 07/07 Q1015 RMK QFE744/0992
Время наблюдения
2021-09-17T15:30:00Z
Температура C
7.0
Точка росы
7.0
Направление ветра
60
Скорость ветра (узлы)
8
Метео видимость
5.59
Явления погоды
-RA
Условия полета
Аэропорт подробнее: 

Авиационная погода в Перми

Регион: 
Погода METAR: 
USPP 171530Z 30002MPS 9999 -RA BKN038 06/06 Q1009 R21/290150 TEMPO 3000 -RA BKN005 RMK QFE746
Время наблюдения
2021-09-17T15:30:00Z
Температура C
6.0
Точка росы
6.0
Направление ветра
300
Скорость ветра (узлы)
4
Метео видимость
6.21
Явления погоды
-RA
Условия полета
VFR
Аэропорт подробнее: 

Авиационная погода в Емельяново

Регион: 
Погода METAR: 
UNKL 171530Z VRB01MPS 1400 1200W BR NSC 09/09 Q1007 R29/CLRD65 NOSIG RMK QFE730
Время наблюдения
2021-09-17T15:30:00Z
Температура C
9.0
Точка росы
9.0
Направление ветра
0
Скорость ветра (узлы)
2
Метео видимость
0.87
Явления погоды
BR
Условия полета
LIFR
Аэропорт подробнее: